sensor_id;sensor_type;location;lat;lon;timestamp;temperature;humidity
27376;DHT22;14844;51.302;6.354;2022-08-21T00:01:48;13.60;99.90
27376;DHT22;14844;51.302;6.354;2022-08-21T00:04:14;13.50;99.90
27376;DHT22;14844;51.302;6.354;2022-08-21T00:06:39;13.50;99.90
27376;DHT22;14844;51.302;6.354;2022-08-21T00:09:07;13.50;99.90
27376;DHT22;14844;51.302;6.354;2022-08-21T00:11:34;13.50;99.90
27376;DHT22;14844;51.302;6.354;2022-08-21T00:14:00;13.50;99.90
27376;DHT22;14844;51.302;6.354;2022-08-21T00:16:26;13.40;99.90
27376;DHT22;14844;51.302;6.354;2022-08-21T00:18:52;13.40;99.90
27376;DHT22;14844;51.302;6.354;2022-08-21T00:21:18;13.40;99.90
27376;DHT22;14844;51.302;6.354;2022-08-21T00:23:43;13.30;99.90
27376;DHT22;14844;51.302;6.354;2022-08-21T00:26:09;13.30;99.90
27376;DHT22;14844;51.302;6.354;2022-08-21T00:28:35;13.30;99.90
27376;DHT22;14844;51.302;6.354;2022-08-21T00:31:01;13.30;99.90
27376;DHT22;14844;51.302;6.354;2022-08-21T00:33:30;13.30;99.90
27376;DHT22;14844;51.302;6.354;2022-08-21T00:35:56;13.20;99.90
27376;DHT22;14844;51.302;6.354;2022-08-21T00:38:22;13.30;99.90
27376;DHT22;14844;51.302;6.354;2022-08-21T00:40:56;13.30;99.90
27376;DHT22;14844;51.302;6.354;2022-08-21T00:43:27;13.40;99.90
27376;DHT22;14844;51.302;6.354;2022-08-21T00:45:57;13.30;99.90
27376;DHT22;14844;51.302;6.354;2022-08-21T00:48:23;13.30;99.90
27376;DHT22;14844;51.302;6.354;2022-08-21T00:50:57;13.20;99.90
27376;DHT22;14844;51.302;6.354;2022-08-21T00:53:23;13.20;99.90
27376;DHT22;14844;51.302;6.354;2022-08-21T00:55:53;13.10;99.90
27376;DHT22;14844;51.302;6.354;2022-08-21T00:58:19;13.10;99.90
27376;DHT22;14844;51.302;6.354;2022-08-21T01:00:47;13.20;99.90
27376;DHT22;14844;51.302;6.354;2022-08-21T01:03:20;13.20;99.90
27376;DHT22;14844;51.302;6.354;2022-08-21T01:05:46;13.10;99.90
27376;DHT22;14844;51.302;6.354;2022-08-21T01:08:13;13.10;99.90
27376;DHT22;14844;51.302;6.354;2022-08-21T01:10:40;13.00;99.90
27376;DHT22;14844;51.302;6.354;2022-08-21T01:13:07;13.00;99.90
27376;DHT22;14844;51.302;6.354;2022-08-21T01:15:39;13.00;99.90
27376;DHT22;14844;51.302;6.354;2022-08-21T01:18:07;12.90;99.90
27376;DHT22;14844;51.302;6.354;2022-08-21T01:20:34;12.90;99.90
27376;DHT22;14844;51.302;6.354;2022-08-21T01:23:02;12.90;99.90
27376;DHT22;14844;51.302;6.354;2022-08-21T01:25:28;12.90;99.90
27376;DHT22;14844;51.302;6.354;2022-08-21T01:27:54;12.90;99.90
27376;DHT22;14844;51.302;6.354;2022-08-21T01:30:24;12.90;99.90
27376;DHT22;14844;51.302;6.354;2022-08-21T01:32:53;13.00;99.90
27376;DHT22;14844;51.302;6.354;2022-08-21T01:35:20;13.10;99.90
27376;DHT22;14844;51.302;6.354;2022-08-21T01:37:46;13.20;99.90
27376;DHT22;14844;51.302;6.354;2022-08-21T01:40:14;13.20;99.90
27376;DHT22;14844;51.302;6.354;2022-08-21T01:42:42;13.20;99.90
27376;DHT22;14844;51.302;6.354;2022-08-21T01:45:08;13.30;99.90
27376;DHT22;14844;51.302;6.354;2022-08-21T01:47:35;13.20;99.90
27376;DHT22;14844;51.302;6.354;2022-08-21T01:50:00;13.20;99.90
27376;DHT22;14844;51.302;6.354;2022-08-21T01:52:26;13.20;99.90
27376;DHT22;14844;51.302;6.354;2022-08-21T01:54:53;13.20;99.90
27376;DHT22;14844;51.302;6.354;2022-08-21T01:57:19;13.20;99.90
27376;DHT22;14844;51.302;6.354;2022-08-21T01:59:45;13.20;99.90
27376;DHT22;14844;51.302;6.354;2022-08-21T02:02:10;13.30;99.90
27376;DHT22;14844;51.302;6.354;2022-08-21T02:04:36;13.30;99.90
27376;DHT22;14844;51.302;6.354;2022-08-21T02:07:02;13.20;99.90
27376;DHT22;14844;51.302;6.354;2022-08-21T02:09:29;13.20;99.90
27376;DHT22;14844;51.302;6.354;2022-08-21T02:11:55;13.20;99.90
27376;DHT22;14844;51.302;6.354;2022-08-21T02:14:20;13.20;99.90
27376;DHT22;14844;51.302;6.354;2022-08-21T02:16:46;13.20;99.90
27376;DHT22;14844;51.302;6.354;2022-08-21T02:19:14;13.20;99.90
27376;DHT22;14844;51.302;6.354;2022-08-21T02:21:40;13.20;99.90
27376;DHT22;14844;51.302;6.354;2022-08-21T02:24:07;13.10;99.90
27376;DHT22;14844;51.302;6.354;2022-08-21T02:26:32;13.10;99.90
27376;DHT22;14844;51.302;6.354;2022-08-21T02:28:59;13.10;99.90
27376;DHT22;14844;51.302;6.354;2022-08-21T02:31:24;13.10;99.90
27376;DHT22;14844;51.302;6.354;2022-08-21T02:33:51;13.10;99.90
27376;DHT22;14844;51.302;6.354;2022-08-21T02:36:16;13.10;99.90
27376;DHT22;14844;51.302;6.354;2022-08-21T02:38:43;13.10;99.90
27376;DHT22;14844;51.302;6.354;2022-08-21T02:41:14;13.10;99.90
27376;DHT22;14844;51.302;6.354;2022-08-21T02:43:40;13.10;99.90
27376;DHT22;14844;51.302;6.354;2022-08-21T02:46:08;13.20;99.90
27376;DHT22;14844;51.302;6.354;2022-08-21T02:48:34;13.10;99.90
27376;DHT22;14844;51.302;6.354;2022-08-21T02:51:10;13.10;99.90
27376;DHT22;14844;51.302;6.354;2022-08-21T02:53:36;13.00;99.90
27376;DHT22;14844;51.302;6.354;2022-08-21T02:56:05;13.00;99.90
27376;DHT22;14844;51.302;6.354;2022-08-21T02:58:34;13.00;99.90
27376;DHT22;14844;51.302;6.354;2022-08-21T03:01:00;13.00;99.90
27376;DHT22;14844;51.302;6.354;2022-08-21T03:03:30;13.00;99.90
27376;DHT22;14844;51.302;6.354;2022-08-21T03:05:56;13.00;99.90
27376;DHT22;14844;51.302;6.354;2022-08-21T03:08:22;13.00;99.90
27376;DHT22;14844;51.302;6.354;2022-08-21T03:10:50;13.10;99.90
27376;DHT22;14844;51.302;6.354;2022-08-21T03:13:17;13.30;99.90
27376;DHT22;14844;51.302;6.354;2022-08-21T03:15:43;13.30;99.90
27376;DHT22;14844;51.302;6.354;2022-08-21T03:18:11;13.40;99.90
27376;DHT22;14844;51.302;6.354;2022-08-21T03:20:39;13.40;99.90
27376;DHT22;14844;51.302;6.354;2022-08-21T03:23:06;13.40;99.90
27376;DHT22;14844;51.302;6.354;2022-08-21T03:25:33;13.40;99.90
27376;DHT22;14844;51.302;6.354;2022-08-21T03:28:04;13.40;99.90
27376;DHT22;14844;51.302;6.354;2022-08-21T03:30:30;13.40;99.90
27376;DHT22;14844;51.302;6.354;2022-08-21T03:33:00;13.40;99.90
27376;DHT22;14844;51.302;6.354;2022-08-21T03:35:27;13.40;99.90
27376;DHT22;14844;51.302;6.354;2022-08-21T03:37:53;13.30;99.90
27376;DHT22;14844;51.302;6.354;2022-08-21T03:40:20;13.30;99.90
27376;DHT22;14844;51.302;6.354;2022-08-21T03:42:46;13.30;99.90
27376;DHT22;14844;51.302;6.354;2022-08-21T03:45:14;13.40;99.90
27376;DHT22;14844;51.302;6.354;2022-08-21T03:47:57;13.50;99.90
27376;DHT22;14844;51.302;6.354;2022-08-21T03:50:27;13.60;99.90
27376;DHT22;14844;51.302;6.354;2022-08-21T03:52:53;13.60;99.90
27376;DHT22;14844;51.302;6.354;2022-08-21T03:55:19;13.80;99.90
27376;DHT22;14844;51.302;6.354;2022-08-21T03:57:44;13.90;99.90
27376;DHT22;14844;51.302;6.354;2022-08-21T04:00:11;14.00;99.90
27376;DHT22;14844;51.302;6.354;2022-08-21T04:02:38;14.10;99.90
27376;DHT22;14844;51.302;6.354;2022-08-21T04:05:05;14.10;99.90
27376;DHT22;14844;51.302;6.354;2022-08-21T04:07:30;14.10;99.90
27376;DHT22;14844;51.302;6.354;2022-08-21T04:09:56;14.20;99.90
27376;DHT22;14844;51.302;6.354;2022-08-21T04:12:21;14.20;99.90
27376;DHT22;14844;51.302;6.354;2022-08-21T04:14:47;14.20;99.90
27376;DHT22;14844;51.302;6.354;2022-08-21T04:17:13;14.20;99.90
27376;DHT22;14844;51.302;6.354;2022-08-21T04:19:38;14.20;99.90
27376;DHT22;14844;51.302;6.354;2022-08-21T04:22:04;14.10;99.90
27376;DHT22;14844;51.302;6.354;2022-08-21T04:24:29;14.10;99.90
27376;DHT22;14844;51.302;6.354;2022-08-21T04:26:55;14.10;99.90
27376;DHT22;14844;51.302;6.354;2022-08-21T04:29:21;14.00;99.90
27376;DHT22;14844;51.302;6.354;2022-08-21T04:31:46;13.90;99.90
27376;DHT22;14844;51.302;6.354;2022-08-21T04:34:12;13.90;99.90
27376;DHT22;14844;51.302;6.354;2022-08-21T04:36:38;13.90;99.90
27376;DHT22;14844;51.302;6.354;2022-08-21T04:39:04;13.80;99.90
27376;DHT22;14844;51.302;6.354;2022-08-21T04:41:29;13.90;99.90
27376;DHT22;14844;51.302;6.354;2022-08-21T04:43:55;13.80;99.90
27376;DHT22;14844;51.302;6.354;2022-08-21T04:46:21;13.80;99.90
27376;DHT22;14844;51.302;6.354;2022-08-21T04:48:47;13.80;99.90
27376;DHT22;14844;51.302;6.354;2022-08-21T04:51:22;13.80;99.90
27376;DHT22;14844;51.302;6.354;2022-08-21T04:53:49;13.80;99.90
27376;DHT22;14844;51.302;6.354;2022-08-21T04:56:25;13.80;99.90
27376;DHT22;14844;51.302;6.354;2022-08-21T04:58:54;13.80;99.90
27376;DHT22;14844;51.302;6.354;2022-08-21T05:01:22;13.80;99.90
27376;DHT22;14844;51.302;6.354;2022-08-21T05:03:52;13.80;99.90
27376;DHT22;14844;51.302;6.354;2022-08-21T05:06:19;13.80;99.90
27376;DHT22;14844;51.302;6.354;2022-08-21T05:08:47;13.80;99.90
27376;DHT22;14844;51.302;6.354;2022-08-21T05:11:14;13.80;99.90
27376;DHT22;14844;51.302;6.354;2022-08-21T05:13:39;13.80;99.90
27376;DHT22;14844;51.302;6.354;2022-08-21T05:16:07;13.80;99.90
27376;DHT22;14844;51.302;6.354;2022-08-21T05:18:32;13.90;99.90
27376;DHT22;14844;51.302;6.354;2022-08-21T05:20:58;13.90;99.90
27376;DHT22;14844;51.302;6.354;2022-08-21T05:23:23;13.90;99.90
27376;DHT22;14844;51.302;6.354;2022-08-21T05:25:51;14.00;99.90
27376;DHT22;14844;51.302;6.354;2022-08-21T05:28:16;14.10;99.90
27376;DHT22;14844;51.302;6.354;2022-08-21T05:30:43;14.10;99.90
27376;DHT22;14844;51.302;6.354;2022-08-21T05:33:09;14.20;99.90
27376;DHT22;14844;51.302;6.354;2022-08-21T05:35:36;14.20;99.90
27376;DHT22;14844;51.302;6.354;2022-08-21T05:38:03;14.30;99.90
27376;DHT22;14844;51.302;6.354;2022-08-21T05:40:29;14.40;99.90
27376;DHT22;14844;51.302;6.354;2022-08-21T05:42:56;14.40;99.90
27376;DHT22;14844;51.302;6.354;2022-08-21T05:45:31;14.50;99.90
27376;DHT22;14844;51.302;6.354;2022-08-21T05:47:57;14.60;99.90
27376;DHT22;14844;51.302;6.354;2022-08-21T05:50:23;14.70;99.90
27376;DHT22;14844;51.302;6.354;2022-08-21T05:52:49;14.80;99.90
27376;DHT22;14844;51.302;6.354;2022-08-21T05:55:14;14.90;99.90
27376;DHT22;14844;51.302;6.354;2022-08-21T05:57:40;15.00;99.90
27376;DHT22;14844;51.302;6.354;2022-08-21T06:00:08;15.10;99.90
27376;DHT22;14844;51.302;6.354;2022-08-21T06:02:35;15.10;99.90
27376;DHT22;14844;51.302;6.354;2022-08-21T06:05:01;15.20;99.90
27376;DHT22;14844;51.302;6.354;2022-08-21T06:07:26;15.40;99.90
27376;DHT22;14844;51.302;6.354;2022-08-21T06:09:52;15.40;99.90
27376;DHT22;14844;51.302;6.354;2022-08-21T06:12:17;15.50;99.90
27376;DHT22;14844;51.302;6.354;2022-08-21T06:14:43;15.70;99.90
27376;DHT22;14844;51.302;6.354;2022-08-21T06:17:11;15.80;99.90
27376;DHT22;14844;51.302;6.354;2022-08-21T06:19:38;15.90;99.90
27376;DHT22;14844;51.302;6.354;2022-08-21T06:22:04;16.00;99.90
27376;DHT22;14844;51.302;6.354;2022-08-21T06:24:30;16.10;99.90
27376;DHT22;14844;51.302;6.354;2022-08-21T06:26:56;16.20;99.90
27376;DHT22;14844;51.302;6.354;2022-08-21T06:29:22;16.30;99.90
27376;DHT22;14844;51.302;6.354;2022-08-21T06:31:49;16.40;99.90
27376;DHT22;14844;51.302;6.354;2022-08-21T06:34:15;16.50;99.90
27376;DHT22;14844;51.302;6.354;2022-08-21T06:36:41;16.60;99.90
27376;DHT22;14844;51.302;6.354;2022-08-21T06:39:07;16.70;99.90
27376;DHT22;14844;51.302;6.354;2022-08-21T06:41:33;16.80;99.90
27376;DHT22;14844;51.302;6.354;2022-08-21T06:43:58;16.90;99.90
27376;DHT22;14844;51.302;6.354;2022-08-21T06:46:26;16.90;99.90
27376;DHT22;14844;51.302;6.354;2022-08-21T06:48:52;17.10;99.90
27376;DHT22;14844;51.302;6.354;2022-08-21T06:51:18;17.20;99.90
27376;DHT22;14844;51.302;6.354;2022-08-21T06:53:44;17.20;99.90
27376;DHT22;14844;51.302;6.354;2022-08-21T06:56:09;17.40;99.90
27376;DHT22;14844;51.302;6.354;2022-08-21T06:58:35;17.50;99.90
27376;DHT22;14844;51.302;6.354;2022-08-21T07:01:01;17.60;99.90
27376;DHT22;14844;51.302;6.354;2022-08-21T07:03:31;17.70;99.90
27376;DHT22;14844;51.302;6.354;2022-08-21T07:05:57;17.70;99.90
27376;DHT22;14844;51.302;6.354;2022-08-21T07:08:24;17.70;99.90
27376;DHT22;14844;51.302;6.354;2022-08-21T07:10:51;17.70;99.90
27376;DHT22;14844;51.302;6.354;2022-08-21T07:13:17;17.80;99.90
27376;DHT22;14844;51.302;6.354;2022-08-21T07:15:43;18.00;99.90
27376;DHT22;14844;51.302;6.354;2022-08-21T07:18:10;18.10;99.90
27376;DHT22;14844;51.302;6.354;2022-08-21T07:20:36;18.20;99.90
27376;DHT22;14844;51.302;6.354;2022-08-21T07:23:04;18.30;99.90
27376;DHT22;14844;51.302;6.354;2022-08-21T07:25:30;18.50;99.90
27376;DHT22;14844;51.302;6.354;2022-08-21T07:27:56;18.70;99.90
27376;DHT22;14844;51.302;6.354;2022-08-21T07:30:22;18.90;99.90
27376;DHT22;14844;51.302;6.354;2022-08-21T07:32:48;18.90;99.90
27376;DHT22;14844;51.302;6.354;2022-08-21T07:35:18;19.10;99.90
27376;DHT22;14844;51.302;6.354;2022-08-21T07:37:44;19.30;99.90
27376;DHT22;14844;51.302;6.354;2022-08-21T07:40:10;19.40;99.90
27376;DHT22;14844;51.302;6.354;2022-08-21T07:42:43;19.40;99.90
27376;DHT22;14844;51.302;6.354;2022-08-21T07:45:10;19.40;99.90
27376;DHT22;14844;51.302;6.354;2022-08-21T07:47:36;19.50;99.90
27376;DHT22;14844;51.302;6.354;2022-08-21T07:50:02;19.70;99.90
27376;DHT22;14844;51.302;6.354;2022-08-21T07:52:27;19.80;99.90
27376;DHT22;14844;51.302;6.354;2022-08-21T07:54:53;19.90;99.90
27376;DHT22;14844;51.302;6.354;2022-08-21T07:57:18;19.90;99.90
27376;DHT22;14844;51.302;6.354;2022-08-21T07:59:44;20.00;99.90
27376;DHT22;14844;51.302;6.354;2022-08-21T08:02:09;20.10;99.90
27376;DHT22;14844;51.302;6.354;2022-08-21T08:04:35;20.30;99.90
27376;DHT22;14844;51.302;6.354;2022-08-21T08:07:01;20.40;99.90
27376;DHT22;14844;51.302;6.354;2022-08-21T08:09:27;20.70;99.90
27376;DHT22;14844;51.302;6.354;2022-08-21T08:11:56;20.90;99.90
27376;DHT22;14844;51.302;6.354;2022-08-21T08:14:24;21.10;99.90
27376;DHT22;14844;51.302;6.354;2022-08-21T08:16:50;21.30;99.90
27376;DHT22;14844;51.302;6.354;2022-08-21T08:19:16;20.90;99.90
27376;DHT22;14844;51.302;6.354;2022-08-21T08:21:41;20.80;99.90
27376;DHT22;14844;51.302;6.354;2022-08-21T08:24:07;20.80;99.90
27376;DHT22;14844;51.302;6.354;2022-08-21T08:26:32;20.60;99.90
27376;DHT22;14844;51.302;6.354;2022-08-21T08:28:58;20.50;99.90
27376;DHT22;14844;51.302;6.354;2022-08-21T08:31:24;20.40;99.90
27376;DHT22;14844;51.302;6.354;2022-08-21T08:33:49;20.40;99.90
27376;DHT22;14844;51.302;6.354;2022-08-21T08:36:16;20.30;99.90
27376;DHT22;14844;51.302;6.354;2022-08-21T08:38:46;20.60;99.90
27376;DHT22;14844;51.302;6.354;2022-08-21T08:41:20;20.50;99.90
27376;DHT22;14844;51.302;6.354;2022-08-21T08:43:58;20.60;99.90
27376;DHT22;14844;51.302;6.354;2022-08-21T08:46:46;20.50;99.90
27376;DHT22;14844;51.302;6.354;2022-08-21T08:49:33;20.80;99.90
27376;DHT22;14844;51.302;6.354;2022-08-21T08:54:47;21.20;99.90
27376;DHT22;14844;51.302;6.354;2022-08-21T08:57:17;21.40;99.90
27376;DHT22;14844;51.302;6.354;2022-08-21T08:59:45;21.50;99.90
27376;DHT22;14844;51.302;6.354;2022-08-21T09:02:16;21.80;99.90
27376;DHT22;14844;51.302;6.354;2022-08-21T09:04:43;21.80;99.90
27376;DHT22;14844;51.302;6.354;2022-08-21T09:07:31;22.00;99.90
27376;DHT22;14844;51.302;6.354;2022-08-21T09:10:11;22.00;99.90
27376;DHT22;14844;51.302;6.354;2022-08-21T09:15:28;22.40;99.90
27376;DHT22;14844;51.302;6.354;2022-08-21T09:18:13;22.90;99.90
27376;DHT22;14844;51.302;6.354;2022-08-21T09:26:07;22.60;99.90
27376;DHT22;14844;51.302;6.354;2022-08-21T09:28:36;22.40;99.90
27376;DHT22;14844;51.302;6.354;2022-08-21T09:31:23;22.10;99.90
27376;DHT22;14844;51.302;6.354;2022-08-21T09:33:49;21.70;99.90
27376;DHT22;14844;51.302;6.354;2022-08-21T09:39:04;21.80;99.90
27376;DHT22;14844;51.302;6.354;2022-08-21T09:41:31;22.10;99.90
27376;DHT22;14844;51.302;6.354;2022-08-21T09:43:59;22.30;99.90
27376;DHT22;14844;51.302;6.354;2022-08-21T09:46:26;22.30;99.90
27376;DHT22;14844;51.302;6.354;2022-08-21T09:48:55;22.60;99.90
27376;DHT22;14844;51.302;6.354;2022-08-21T09:51:33;22.60;99.90
27376;DHT22;14844;51.302;6.354;2022-08-21T09:59:27;23.10;99.90
27376;DHT22;14844;51.302;6.354;2022-08-21T10:01:56;23.20;99.90
27376;DHT22;14844;51.302;6.354;2022-08-21T10:04:28;23.10;99.90
27376;DHT22;14844;51.302;6.354;2022-08-21T10:07:11;23.20;99.90
27376;DHT22;14844;51.302;6.354;2022-08-21T10:09:41;23.20;99.90
27376;DHT22;14844;51.302;6.354;2022-08-21T10:12:28;23.60;99.80
27376;DHT22;14844;51.302;6.354;2022-08-21T10:18:03;23.80;99.10
27376;DHT22;14844;51.302;6.354;2022-08-21T10:20:40;24.10;99.80
27376;DHT22;14844;51.302;6.354;2022-08-21T10:34:05;24.10;98.90
27376;DHT22;14844;51.302;6.354;2022-08-21T10:36:36;24.10;98.50
27376;DHT22;14844;51.302;6.354;2022-08-21T10:39:24;24.10;98.20
27376;DHT22;14844;51.302;6.354;2022-08-21T10:45:07;24.20;96.90
27376;DHT22;14844;51.302;6.354;2022-08-21T10:47:42;24.30;96.70
27376;DHT22;14844;51.302;6.354;2022-08-21T10:53:05;24.60;96.00
27376;DHT22;14844;51.302;6.354;2022-08-21T10:55:43;24.60;96.20
27376;DHT22;14844;51.302;6.354;2022-08-21T10:58:14;24.70;95.80
27376;DHT22;14844;51.302;6.354;2022-08-21T11:03:33;24.60;96.30
27376;DHT22;14844;51.302;6.354;2022-08-21T11:08:43;24.30;95.60
27376;DHT22;14844;51.302;6.354;2022-08-21T11:11:29;24.50;95.30
27376;DHT22;14844;51.302;6.354;2022-08-21T11:14:03;24.60;95.30
27376;DHT22;14844;51.302;6.354;2022-08-21T11:16:37;24.50;95.10
27376;DHT22;14844;51.302;6.354;2022-08-21T11:19:12;24.70;95.20
27376;DHT22;14844;51.302;6.354;2022-08-21T11:22:49;24.70;94.60
27376;DHT22;14844;51.302;6.354;2022-08-21T11:24:44;24.70;95.50
27376;DHT22;14844;51.302;6.354;2022-08-21T11:27:26;24.70;94.90
27376;DHT22;14844;51.302;6.354;2022-08-21T11:29:57;24.70;95.20
27376;DHT22;14844;51.302;6.354;2022-08-21T11:38:22;25.10;93.70
27376;DHT22;14844;51.302;6.354;2022-08-21T11:43:46;25.50;93.40
27376;DHT22;14844;51.302;6.354;2022-08-21T11:46:39;25.50;93.30
27376;DHT22;14844;51.302;6.354;2022-08-21T11:49:18;25.50;92.90
27376;DHT22;14844;51.302;6.354;2022-08-21T11:54:34;25.90;92.90
27376;DHT22;14844;51.302;6.354;2022-08-21T11:57:11;25.80;92.80
27376;DHT22;14844;51.302;6.354;2022-08-21T12:02:29;26.50;91.60
27376;DHT22;14844;51.302;6.354;2022-08-21T12:05:03;26.60;91.20
27376;DHT22;14844;51.302;6.354;2022-08-21T12:07:43;26.30;90.80
27376;DHT22;14844;51.302;6.354;2022-08-21T12:10:16;25.90;91.80
27376;DHT22;14844;51.302;6.354;2022-08-21T12:12:44;25.50;91.30
27376;DHT22;14844;51.302;6.354;2022-08-21T12:15:23;25.20;91.50
27376;DHT22;14844;51.302;6.354;2022-08-21T12:18:02;25.30;91.30
27376;DHT22;14844;51.302;6.354;2022-08-21T12:28:21;26.00;90.60
27376;DHT22;14844;51.302;6.354;2022-08-21T12:30:47;26.40;90.30
27376;DHT22;14844;51.302;6.354;2022-08-21T12:35:49;25.80;90.70
27376;DHT22;14844;51.302;6.354;2022-08-21T12:38:27;25.90;90.10
27376;DHT22;14844;51.302;6.354;2022-08-21T12:41:03;26.00;91.50
27376;DHT22;14844;51.302;6.354;2022-08-21T12:43:37;26.00;91.30
27376;DHT22;14844;51.302;6.354;2022-08-21T12:46:03;26.10;91.90
27376;DHT22;14844;51.302;6.354;2022-08-21T12:48:51;25.90;90.40
27376;DHT22;14844;51.302;6.354;2022-08-21T12:51:26;26.00;90.70
27376;DHT22;14844;51.302;6.354;2022-08-21T12:53:56;25.80;90.60
27376;DHT22;14844;51.302;6.354;2022-08-21T12:56:27;25.60;90.70
27376;DHT22;14844;51.302;6.354;2022-08-21T12:59:01;25.60;90.80
27376;DHT22;14844;51.302;6.354;2022-08-21T13:01:35;25.30;91.40
27376;DHT22;14844;51.302;6.354;2022-08-21T13:04:05;25.00;91.10
27376;DHT22;14844;51.302;6.354;2022-08-21T13:06:38;24.80;91.60
27376;DHT22;14844;51.302;6.354;2022-08-21T13:09:07;25.00;92.30
27376;DHT22;14844;51.302;6.354;2022-08-21T13:11:34;25.20;91.50
27376;DHT22;14844;51.302;6.354;2022-08-21T13:14:02;25.60;91.40
27376;DHT22;14844;51.302;6.354;2022-08-21T13:16:29;25.70;90.30
27376;DHT22;14844;51.302;6.354;2022-08-21T13:19:01;26.00;90.30
27376;DHT22;14844;51.302;6.354;2022-08-21T13:21:39;26.00;89.50
27376;DHT22;14844;51.302;6.354;2022-08-21T13:24:13;25.80;90.30
27376;DHT22;14844;51.302;6.354;2022-08-21T13:26:40;26.10;90.60
27376;DHT22;14844;51.302;6.354;2022-08-21T13:29:11;26.10;89.70
27376;DHT22;14844;51.302;6.354;2022-08-21T13:31:38;26.20;90.00
27376;DHT22;14844;51.302;6.354;2022-08-21T13:34:05;26.30;88.50
27376;DHT22;14844;51.302;6.354;2022-08-21T13:36:35;26.20;88.50
27376;DHT22;14844;51.302;6.354;2022-08-21T13:39:07;26.10;87.30
27376;DHT22;14844;51.302;6.354;2022-08-21T13:41:35;26.30;88.90
27376;DHT22;14844;51.302;6.354;2022-08-21T13:46:39;26.50;88.40
27376;DHT22;14844;51.302;6.354;2022-08-21T13:49:06;26.80;87.60
27376;DHT22;14844;51.302;6.354;2022-08-21T13:51:33;27.00;87.00
27376;DHT22;14844;51.302;6.354;2022-08-21T13:53:59;27.30;85.20
27376;DHT22;14844;51.302;6.354;2022-08-21T13:56:31;27.10;84.80
27376;DHT22;14844;51.302;6.354;2022-08-21T13:58:59;26.50;87.60
27376;DHT22;14844;51.302;6.354;2022-08-21T14:01:35;25.90;87.80
27376;DHT22;14844;51.302;6.354;2022-08-21T14:04:36;26.00;89.10
27376;DHT22;14844;51.302;6.354;2022-08-21T14:07:03;26.10;88.70
27376;DHT22;14844;51.302;6.354;2022-08-21T14:09:43;26.30;85.30
27376;DHT22;14844;51.302;6.354;2022-08-21T14:12:27;26.50;86.10
27376;DHT22;14844;51.302;6.354;2022-08-21T14:14:55;26.70;86.10
27376;DHT22;14844;51.302;6.354;2022-08-21T14:17:31;26.30;85.10
27376;DHT22;14844;51.302;6.354;2022-08-21T14:19:57;26.10;84.40
27376;DHT22;14844;51.302;6.354;2022-08-21T14:24:48;26.10;83.70
27376;DHT22;14844;51.302;6.354;2022-08-21T14:27:17;25.80;84.40
27376;DHT22;14844;51.302;6.354;2022-08-21T14:29:43;25.70;84.20
27376;DHT22;14844;51.302;6.354;2022-08-21T14:32:19;25.80;85.30
27376;DHT22;14844;51.302;6.354;2022-08-21T14:34:45;25.90;84.80
27376;DHT22;14844;51.302;6.354;2022-08-21T14:37:10;26.00;81.90
27376;DHT22;14844;51.302;6.354;2022-08-21T14:39:36;26.00;80.50
27376;DHT22;14844;51.302;6.354;2022-08-21T14:42:02;26.00;77.10
27376;DHT22;14844;51.302;6.354;2022-08-21T14:44:28;25.90;78.50
27376;DHT22;14844;51.302;6.354;2022-08-21T14:46:54;26.10;77.90
27376;DHT22;14844;51.302;6.354;2022-08-21T14:49:20;26.20;79.50
27376;DHT22;14844;51.302;6.354;2022-08-21T14:51:45;26.20;77.60
27376;DHT22;14844;51.302;6.354;2022-08-21T14:54:11;26.10;77.90
27376;DHT22;14844;51.302;6.354;2022-08-21T14:56:36;26.00;80.80
27376;DHT22;14844;51.302;6.354;2022-08-21T14:59:06;25.80;81.00
27376;DHT22;14844;51.302;6.354;2022-08-21T15:01:35;26.20;80.20
27376;DHT22;14844;51.302;6.354;2022-08-21T15:04:01;27.10;78.40
27376;DHT22;14844;51.302;6.354;2022-08-21T15:06:27;27.80;78.50
27376;DHT22;14844;51.302;6.354;2022-08-21T15:08:53;28.10;74.80
27376;DHT22;14844;51.302;6.354;2022-08-21T15:11:20;28.50;74.30
27376;DHT22;14844;51.302;6.354;2022-08-21T15:13:47;29.30;72.80
27376;DHT22;14844;51.302;6.354;2022-08-21T15:16:13;28.80;71.80
27376;DHT22;14844;51.302;6.354;2022-08-21T15:18:39;28.30;74.20
27376;DHT22;14844;51.302;6.354;2022-08-21T15:21:05;28.50;72.10
27376;DHT22;14844;51.302;6.354;2022-08-21T15:23:31;29.50;70.50
27376;DHT22;14844;51.302;6.354;2022-08-21T15:25:57;30.40;69.60
27376;DHT22;14844;51.302;6.354;2022-08-21T15:28:25;31.50;65.30
27376;DHT22;14844;51.302;6.354;2022-08-21T15:30:51;31.40;63.90
27376;DHT22;14844;51.302;6.354;2022-08-21T15:33:18;31.70;62.50
27376;DHT22;14844;51.302;6.354;2022-08-21T15:35:44;31.50;65.40
27376;DHT22;14844;51.302;6.354;2022-08-21T15:38:11;31.80;61.80
27376;DHT22;14844;51.302;6.354;2022-08-21T15:40:38;32.20;60.30
27376;DHT22;14844;51.302;6.354;2022-08-21T15:43:05;31.80;59.20
27376;DHT22;14844;51.302;6.354;2022-08-21T15:45:32;31.40;59.50
27376;DHT22;14844;51.302;6.354;2022-08-21T15:47:58;30.90;61.00
27376;DHT22;14844;51.302;6.354;2022-08-21T15:50:24;30.60;61.80
27376;DHT22;14844;51.302;6.354;2022-08-21T15:52:51;30.50;62.20
27376;DHT22;14844;51.302;6.354;2022-08-21T15:55:16;30.50;62.60
27376;DHT22;14844;51.302;6.354;2022-08-21T15:57:48;30.40;63.20
27376;DHT22;14844;51.302;6.354;2022-08-21T16:00:20;29.80;62.00
27376;DHT22;14844;51.302;6.354;2022-08-21T16:02:51;28.90;65.10
27376;DHT22;14844;51.302;6.354;2022-08-21T16:05:18;28.60;66.60
27376;DHT22;14844;51.302;6.354;2022-08-21T16:07:45;28.50;66.80
27376;DHT22;14844;51.302;6.354;2022-08-21T16:10:14;27.70;69.40
27376;DHT22;14844;51.302;6.354;2022-08-21T16:12:45;27.40;69.40
27376;DHT22;14844;51.302;6.354;2022-08-21T16:15:13;27.20;70.20
27376;DHT22;14844;51.302;6.354;2022-08-21T16:17:42;27.20;70.60
27376;DHT22;14844;51.302;6.354;2022-08-21T16:20:12;27.80;68.40
27376;DHT22;14844;51.302;6.354;2022-08-21T16:22:37;28.00;67.80
27376;DHT22;14844;51.302;6.354;2022-08-21T16:25:05;28.10;67.50
27376;DHT22;14844;51.302;6.354;2022-08-21T16:27:32;27.90;68.10
27376;DHT22;14844;51.302;6.354;2022-08-21T16:29:59;27.50;68.70
27376;DHT22;14844;51.302;6.354;2022-08-21T16:32:25;27.30;70.10
27376;DHT22;14844;51.302;6.354;2022-08-21T16:34:50;26.90;70.70
27376;DHT22;14844;51.302;6.354;2022-08-21T16:37:17;27.30;71.70
27376;DHT22;14844;51.302;6.354;2022-08-21T16:39:43;27.80;69.30
27376;DHT22;14844;51.302;6.354;2022-08-21T16:42:14;28.30;68.30
27376;DHT22;14844;51.302;6.354;2022-08-21T16:44:42;28.60;68.20
27376;DHT22;14844;51.302;6.354;2022-08-21T16:47:08;28.30;68.20
27376;DHT22;14844;51.302;6.354;2022-08-21T16:49:34;28.30;67.70
27376;DHT22;14844;51.302;6.354;2022-08-21T16:52:00;28.00;67.20
27376;DHT22;14844;51.302;6.354;2022-08-21T16:54:25;27.70;67.20